createdAt,value
2022-11-02T00:02:55.325Z,15.02
2022-11-02T00:05:57.526Z,17.27
2022-11-02T00:08:59.653Z,16.30
2022-11-02T00:12:01.774Z,15.02
2022-11-02T00:15:05.119Z,15.93
2022-11-02T00:18:12.118Z,15.20
2022-11-02T00:21:16.469Z,14.97
2022-11-02T00:24:18.612Z,14.35
2022-11-02T00:27:20.849Z,15.68
2022-11-02T00:30:23.174Z,15.10
2022-11-02T00:33:26.196Z,16.52
2022-11-02T00:36:28.417Z,15.70
2022-11-02T00:39:30.563Z,16.70
2022-11-02T00:42:32.721Z,16.95
2022-11-02T00:45:34.913Z,15.57
2022-11-02T00:48:37.748Z,16.20
2022-11-02T00:51:40.579Z,15.97
2022-11-02T00:54:42.967Z,16.08
2022-11-02T00:57:45.202Z,15.98
2022-11-02T01:00:47.965Z,14.90
2022-11-02T01:03:50.311Z,16.13
2022-11-02T01:06:52.968Z,15.97
2022-11-02T01:09:55.458Z,16.33
2022-11-02T01:12:57.669Z,16.23
2022-11-02T01:15:59.794Z,14.10
2022-11-02T01:19:02.242Z,14.30
2022-11-02T01:22:04.441Z,14.57
2022-11-02T01:25:07.978Z,14.68
2022-11-02T01:28:10.684Z,14.32
2022-11-02T01:31:15.725Z,15.05
2022-11-02T01:34:18.705Z,14.52
2022-11-02T01:37:22.221Z,13.97
2022-11-02T01:40:25.208Z,14.90
2022-11-02T01:43:33.724Z,14.50
2022-11-02T01:46:42.453Z,15.45
2022-11-02T01:49:47.696Z,15.38
2022-11-02T01:52:50.894Z,14.57
2022-11-02T01:55:54.088Z,14.95
2022-11-02T01:59:00.562Z,16.40
2022-11-02T02:02:06.710Z,17.35
2022-11-02T02:05:11.763Z,17.75
2022-11-02T02:08:18.233Z,16.70
2022-11-02T02:11:36.077Z,16.30
2022-11-02T02:14:39.475Z,16.85
2022-11-02T02:17:50.216Z,16.65
2022-11-02T02:20:55.491Z,15.18
2022-11-02T02:24:25.043Z,14.77
2022-11-02T02:28:04.900Z,14.98
2022-11-02T02:31:18.490Z,14.98
2022-11-02T02:34:29.213Z,15.80
2022-11-02T02:37:37.119Z,16.70
2022-11-02T02:40:48.475Z,16.90
2022-11-02T02:43:55.123Z,16.20
2022-11-02T02:47:08.583Z,16.02
2022-11-02T02:50:18.376Z,16.83
2022-11-02T02:53:27.772Z,15.00
2022-11-02T02:56:34.824Z,15.03
2022-11-02T02:59:45.355Z,14.70
2022-11-02T03:03:01.669Z,15.55
2022-11-02T03:06:14.398Z,15.60
2022-11-02T03:09:43.995Z,14.80
2022-11-02T03:13:23.973Z,15.10
2022-11-02T03:16:38.757Z,14.30
2022-11-02T03:19:47.436Z,13.88
2022-11-02T03:23:19.278Z,14.25
2022-11-02T03:26:34.597Z,15.63
2022-11-02T03:29:40.165Z,14.70
2022-11-02T03:32:57.245Z,15.27
2022-11-02T03:36:06.926Z,14.38
2022-11-02T03:39:12.054Z,13.15
2022-11-02T03:42:18.105Z,13.40
2022-11-02T03:45:25.832Z,15.43
2022-11-02T03:48:34.809Z,14.20
2022-11-02T03:51:40.542Z,14.63
2022-11-02T03:54:50.007Z,15.85
2022-11-02T03:57:53.162Z,14.88
2022-11-02T04:01:03.829Z,14.80
2022-11-02T04:04:06.691Z,14.52
2022-11-02T04:07:09.621Z,14.13
2022-11-02T04:10:12.671Z,14.63
2022-11-02T04:13:33.163Z,15.18
2022-11-02T04:16:35.374Z,15.30
2022-11-02T04:19:45.464Z,15.43
2022-11-02T04:23:09.726Z,17.42
2022-11-02T04:26:12.243Z,17.20
2022-11-02T04:29:18.895Z,17.73
2022-11-02T04:32:40.233Z,17.53
2022-11-02T04:35:47.606Z,17.52
2022-11-02T04:38:50.491Z,17.92
2022-11-02T04:41:56.414Z,17.48
2022-11-02T04:45:07.109Z,17.60
2022-11-02T04:48:10.049Z,17.23
2022-11-02T04:51:13.734Z,15.55
2022-11-02T04:54:16.019Z,15.77
2022-11-02T04:57:19.497Z,15.88
2022-11-02T05:00:22.348Z,15.32
2022-11-02T05:03:26.522Z,16.27
2022-11-02T05:06:29.096Z,15.82
2022-11-02T05:09:31.599Z,15.48
2022-11-02T05:12:34.594Z,16.27
2022-11-02T05:15:39.356Z,15.70
2022-11-02T05:18:43.092Z,15.53
2022-11-02T05:21:45.660Z,15.65
2022-11-02T05:24:51.736Z,16.48
2022-11-02T05:27:57.020Z,16.25
2022-11-02T05:31:00.805Z,16.13
2022-11-02T05:34:04.731Z,14.93
2022-11-02T05:37:06.996Z,16.25
2022-11-02T05:40:09.860Z,14.75
2022-11-02T05:43:12.820Z,15.93
2022-11-02T05:46:15.174Z,15.77
2022-11-02T05:49:17.370Z,15.83
2022-11-02T05:52:19.684Z,15.90
2022-11-02T05:55:21.934Z,15.60
2022-11-02T05:58:24.904Z,16.38
2022-11-02T06:01:28.257Z,15.90
2022-11-02T06:04:31.298Z,16.10
2022-11-02T06:07:34.490Z,15.82
2022-11-02T06:10:37.585Z,17.00
2022-11-02T06:13:41.599Z,17.10
2022-11-02T06:16:44.491Z,16.85
2022-11-02T06:19:47.469Z,15.83
2022-11-02T06:22:50.671Z,16.65
2022-11-02T06:25:54.798Z,16.65
2022-11-02T06:28:57.884Z,17.33
2022-11-02T06:32:00.973Z,17.25
2022-11-02T06:35:04.074Z,16.67
2022-11-02T06:38:06.445Z,17.40
2022-11-02T06:41:08.763Z,17.50
2022-11-02T06:44:13.376Z,20.02
2022-11-02T06:47:15.571Z,20.77
2022-11-02T06:50:17.906Z,18.77
2022-11-02T06:53:20.132Z,18.67
2022-11-02T06:56:22.325Z,19.80
2022-11-02T06:59:24.517Z,20.90
2022-11-02T07:02:26.664Z,20.52
2022-11-02T07:05:29.032Z,20.07
2022-11-02T07:08:31.260Z,19.98
2022-11-02T07:11:33.396Z,19.83
2022-11-02T07:14:35.575Z,18.73
2022-11-02T07:17:41.254Z,18.95
2022-11-02T07:20:43.444Z,18.67
2022-11-02T07:23:45.603Z,18.60
2022-11-02T07:26:51.190Z,17.17
2022-11-02T07:29:53.440Z,16.98
2022-11-02T07:32:55.735Z,17.35
2022-11-02T07:35:57.887Z,16.37
2022-11-02T07:39:00.598Z,16.70
2022-11-02T07:42:02.877Z,16.05
2022-11-02T07:45:05.607Z,15.60
2022-11-02T07:48:09.231Z,14.60
2022-11-02T07:51:11.696Z,14.63
2022-11-02T07:54:13.915Z,16.35
2022-11-02T07:57:16.067Z,16.13
2022-11-02T08:00:18.568Z,16.08
2022-11-02T08:03:20.829Z,15.38
2022-11-02T08:06:23.136Z,14.93
2022-11-02T08:09:25.592Z,16.27
2022-11-02T08:12:28.271Z,15.70
2022-11-02T08:15:30.626Z,17.00
2022-11-02T08:18:33.002Z,17.38
2022-11-02T08:21:35.147Z,20.03
2022-11-02T08:24:37.310Z,19.17
2022-11-02T08:27:39.535Z,16.67
2022-11-02T08:30:42.086Z,14.85
2022-11-02T08:33:45.117Z,15.70
2022-11-02T08:36:47.269Z,15.23
2022-11-02T08:39:49.493Z,15.95
2022-11-02T08:43:02.354Z,14.85
2022-11-02T08:46:20.169Z,15.07
2022-11-02T08:49:22.420Z,14.35
2022-11-02T08:52:24.527Z,15.17
2022-11-02T08:55:26.987Z,13.98
2022-11-02T08:58:29.248Z,13.75
2022-11-02T09:01:31.624Z,13.73
2022-11-02T09:04:33.801Z,14.15
2022-11-02T09:07:36.057Z,13.67
2022-11-02T09:10:38.261Z,14.90
2022-11-02T09:13:40.718Z,13.85
2022-11-02T09:16:42.865Z,13.95
2022-11-02T09:19:45.135Z,14.32
2022-11-02T09:22:47.651Z,14.57
2022-11-02T09:25:50.295Z,14.20
2022-11-02T09:28:52.451Z,14.38
2022-11-02T09:31:54.682Z,15.90
2022-11-02T09:34:56.836Z,15.50
2022-11-02T09:37:59.109Z,15.50
2022-11-02T09:41:13.701Z,16.10
2022-11-02T09:44:23.494Z,15.45
2022-11-02T09:48:10.686Z,15.57
2022-11-02T09:50:56.530Z,15.02
2022-11-02T09:54:25.656Z,14.37
2022-11-02T09:57:29.718Z,15.18
2022-11-02T10:00:35.891Z,14.90
2022-11-02T10:03:57.520Z,14.88
2022-11-02T10:07:31.570Z,15.70
2022-11-02T10:10:46.460Z,15.07
2022-11-02T10:13:56.828Z,14.82
2022-11-02T10:17:23.376Z,15.38
2022-11-02T10:20:33.027Z,15.30
2022-11-02T10:23:40.987Z,14.88
2022-11-02T10:26:43.657Z,15.53
2022-11-02T10:29:48.699Z,16.50
2022-11-02T10:32:52.169Z,15.35
2022-11-02T10:36:19.826Z,14.73
2022-11-02T10:39:35.986Z,14.77
2022-11-02T10:42:54.301Z,14.83
2022-11-02T10:45:56.403Z,15.68
2022-11-02T10:49:04.223Z,14.43
2022-11-02T10:52:06.613Z,14.15
2022-11-02T10:55:16.002Z,14.25
2022-11-02T10:58:21.450Z,14.17
2022-11-02T11:01:23.750Z,13.02
2022-11-02T11:04:27.955Z,13.18
2022-11-02T11:07:30.190Z,11.88
2022-11-02T11:10:38.079Z,12.52
2022-11-02T11:20:38.684Z,11.35
2022-11-02T11:23:40.831Z,11.50
2022-11-02T11:26:42.967Z,11.27
2022-11-02T11:29:57.902Z,11.00
2022-11-02T11:33:01.039Z,11.00
2022-11-02T11:36:03.390Z,10.07
2022-11-02T11:39:23.399Z,9.90
2022-11-02T11:42:28.619Z,9.95
2022-11-02T11:45:32.814Z,9.83
2022-11-02T11:48:35.003Z,10.30
2022-11-02T11:51:45.186Z,9.90
2022-11-02T11:54:58.008Z,10.60
2022-11-02T11:58:32.919Z,10.40
2022-11-02T12:01:41.079Z,10.93
2022-11-02T12:04:43.301Z,11.45
2022-11-02T12:08:10.599Z,11.00
2022-11-02T12:11:39.903Z,10.82
2022-11-02T12:15:05.465Z,14.43
2022-11-02T12:18:37.021Z,13.33
2022-11-02T12:21:46.122Z,11.35
2022-11-02T12:25:15.287Z,10.80
2022-11-02T12:28:44.506Z,12.00
2022-11-02T12:31:56.713Z,12.27
2022-11-02T12:35:28.780Z,11.27
2022-11-02T12:38:49.327Z,10.75
2022-11-02T12:41:57.700Z,11.45
2022-11-02T12:45:09.816Z,11.27
2022-11-02T12:48:15.250Z,11.13
2022-11-02T12:51:22.072Z,11.07
2022-11-02T12:54:39.160Z,11.57
2022-11-02T12:57:43.821Z,10.98
2022-11-02T13:00:48.934Z,10.35
2022-11-02T13:04:26.018Z,10.30
2022-11-02T13:07:39.245Z,9.43
2022-11-02T13:10:53.166Z,9.82
2022-11-02T13:13:57.651Z,8.98
2022-11-02T13:17:05.691Z,9.25
2022-11-02T13:20:36.176Z,9.02
2022-11-02T13:23:52.253Z,8.73
2022-11-02T13:26:57.396Z,8.85
2022-11-02T13:30:12.889Z,9.95
2022-11-02T13:33:21.415Z,10.98
2022-11-02T13:36:23.589Z,10.70
2022-11-02T13:39:37.325Z,9.77
2022-11-02T13:42:46.515Z,10.02
2022-11-02T13:46:21.984Z,8.77
2022-11-02T13:49:30.608Z,8.60
2022-11-02T13:52:45.964Z,8.70
2022-11-02T13:55:54.476Z,8.70
2022-11-02T13:59:16.511Z,7.95
2022-11-02T14:02:19.863Z,7.80
2022-11-02T14:05:33.983Z,7.35
2022-11-02T14:08:38.938Z,7.40
2022-11-02T14:11:41.052Z,6.07
2022-11-02T14:14:44.132Z,3.92
2022-11-02T14:17:55.293Z,3.47
2022-11-02T14:20:59.517Z,3.42
2022-11-02T14:24:33.763Z,3.15
2022-11-02T14:27:36.905Z,2.80
2022-11-02T14:30:45.163Z,3.28
2022-11-02T14:34:10.057Z,3.28
2022-11-02T14:37:41.280Z,3.63
2022-11-02T14:40:49.194Z,3.17
2022-11-02T14:44:12.814Z,3.53
2022-11-02T14:47:16.715Z,3.47
2022-11-02T14:50:20.306Z,3.33
2022-11-02T14:53:26.122Z,3.42
2022-11-02T14:56:57.971Z,3.20
2022-11-02T15:00:04.023Z,4.00
2022-11-02T15:03:27.743Z,3.47
2022-11-02T15:06:31.856Z,3.40
2022-11-02T15:09:55.440Z,3.90
2022-11-02T15:13:19.225Z,3.80
2022-11-02T15:16:22.547Z,3.57
2022-11-02T15:19:39.250Z,3.97
2022-11-02T15:22:48.024Z,4.47
2022-11-02T15:25:52.534Z,3.97
2022-11-02T15:28:57.365Z,5.07
2022-11-02T15:32:00.863Z,3.97
2022-11-02T15:35:03.178Z,3.55
2022-11-02T15:38:27.990Z,4.07
2022-11-02T15:41:43.851Z,4.30
2022-11-02T15:45:27.022Z,4.32
2022-11-02T15:48:58.929Z,4.03
2022-11-02T15:52:15.590Z,4.10
2022-11-02T15:55:17.716Z,4.60
2022-11-02T15:58:22.832Z,4.68
2022-11-02T16:01:28.616Z,4.47
2022-11-02T16:04:33.545Z,5.73
2022-11-02T16:07:50.172Z,5.40
2022-11-02T16:11:05.496Z,5.20
2022-11-02T16:14:16.368Z,5.07
2022-11-02T16:17:23.591Z,4.80
2022-11-02T16:20:30.966Z,5.57
2022-11-02T16:23:35.526Z,5.35
2022-11-02T16:26:37.771Z,5.43
2022-11-02T16:29:40.700Z,4.97
2022-11-02T16:32:43.240Z,5.32
2022-11-02T16:35:45.543Z,5.43
2022-11-02T16:39:07.824Z,6.10
2022-11-02T16:42:15.589Z,5.45
2022-11-02T16:45:42.146Z,5.82
2022-11-02T16:49:07.180Z,6.30
2022-11-02T16:52:24.132Z,5.57
2022-11-02T16:55:35.959Z,6.40
2022-11-02T16:58:38.516Z,7.30
2022-11-02T17:01:41.334Z,6.45
2022-11-02T17:04:45.783Z,6.63
2022-11-02T17:08:05.450Z,7.80
2022-11-02T17:11:16.579Z,8.18
2022-11-02T17:14:20.756Z,8.98
2022-11-02T17:17:22.883Z,9.40
2022-11-02T17:20:25.654Z,9.20
2022-11-02T17:23:33.852Z,7.60
2022-11-02T17:26:37.651Z,9.60
2022-11-02T17:29:40.327Z,10.77
2022-11-02T17:32:43.035Z,11.77
2022-11-02T17:35:47.074Z,11.57
2022-11-02T17:38:49.295Z,11.53
2022-11-02T17:42:14.851Z,11.10
2022-11-02T17:45:31.382Z,13.32
2022-11-02T17:48:35.749Z,12.18
2022-11-02T17:51:39.049Z,18.02
2022-11-02T17:54:42.095Z,15.97
2022-11-02T17:57:44.765Z,13.23
2022-11-02T18:00:47.458Z,14.27
2022-11-02T18:03:50.140Z,14.40
2022-11-02T18:06:52.665Z,14.45
2022-11-02T18:09:54.952Z,13.10
2022-11-02T18:12:57.643Z,11.70
2022-11-02T18:15:59.945Z,11.93
2022-11-02T18:19:02.458Z,19.60
2022-11-02T18:22:05.326Z,23.52
2022-11-02T18:25:13.082Z,15.97
2022-11-02T18:28:16.172Z,12.70
2022-11-02T18:31:21.453Z,9.43
2022-11-02T18:34:24.128Z,7.97
2022-11-02T18:37:27.282Z,7.45
2022-11-02T18:40:35.060Z,7.33
2022-11-02T18:43:37.566Z,6.65
2022-11-02T18:46:40.316Z,6.50
2022-11-02T18:49:43.662Z,7.25
2022-11-02T18:52:49.904Z,7.18
2022-11-02T18:55:52.699Z,6.03
2022-11-02T18:58:56.144Z,10.35
2022-11-02T19:01:59.665Z,15.32
2022-11-02T19:05:02.290Z,9.48
2022-11-02T19:08:23.559Z,10.65
2022-11-02T19:11:26.817Z,9.73
2022-11-02T19:14:35.074Z,8.32
2022-11-02T19:17:37.673Z,7.05
2022-11-02T19:20:40.265Z,6.00
2022-11-02T19:23:42.808Z,5.97
2022-11-02T19:26:46.102Z,5.90
2022-11-02T19:29:50.856Z,5.82
2022-11-02T19:32:53.784Z,6.57
2022-11-02T19:35:57.527Z,6.20
2022-11-02T19:39:04.020Z,5.93
2022-11-02T19:42:07.994Z,5.80
2022-11-02T19:45:16.874Z,5.95
2022-11-02T19:48:19.488Z,6.55
2022-11-02T19:51:24.291Z,6.55
2022-11-02T19:54:27.422Z,6.50
2022-11-02T19:57:33.339Z,7.00
2022-11-02T20:00:36.761Z,6.20
2022-11-02T20:03:40.102Z,5.97
2022-11-02T20:06:43.686Z,8.57
2022-11-02T20:09:46.454Z,14.23
2022-11-02T20:12:52.335Z,7.83
2022-11-02T20:15:56.692Z,6.68
2022-11-02T20:18:59.510Z,6.03
2022-11-02T20:22:02.104Z,6.82
2022-11-02T20:25:08.313Z,6.43
2022-11-02T20:28:11.080Z,6.10
2022-11-02T20:31:22.527Z,6.70
2022-11-02T20:34:25.200Z,7.30
2022-11-02T20:37:27.881Z,7.38
2022-11-02T20:40:34.491Z,6.28
2022-11-02T20:43:42.247Z,6.67
2022-11-02T20:46:52.771Z,6.78
2022-11-02T20:49:55.785Z,6.35
2022-11-02T20:52:59.613Z,5.82
2022-11-02T20:56:02.904Z,5.80
2022-11-02T20:59:06.159Z,6.03
2022-11-02T21:02:11.266Z,5.75
2022-11-02T21:05:14.541Z,6.22
2022-11-02T21:08:18.341Z,5.95
2022-11-02T21:11:39.097Z,5.90
2022-11-02T21:14:41.274Z,5.53
2022-11-02T21:17:43.928Z,5.57
2022-11-02T21:20:46.103Z,6.32
2022-11-02T21:23:48.513Z,5.75
2022-11-02T21:26:50.634Z,5.43
2022-11-02T21:29:52.977Z,5.43
2022-11-02T21:32:55.162Z,5.85
2022-11-02T21:35:57.983Z,6.25
2022-11-02T21:39:00.474Z,6.90
2022-11-02T21:42:03.819Z,7.72
2022-11-02T21:45:06.653Z,7.80
2022-11-02T21:48:08.791Z,7.82
2022-11-02T21:51:16.498Z,7.45
2022-11-02T21:54:18.643Z,8.30
2022-11-02T21:57:21.363Z,8.27
2022-11-02T22:00:43.756Z,7.10
2022-11-02T22:03:46.401Z,7.43
2022-11-02T22:06:49.877Z,7.70
2022-11-02T22:09:52.078Z,7.75
2022-11-02T22:13:12.795Z,8.45
2022-11-02T22:16:27.709Z,9.00
2022-11-02T22:19:29.865Z,7.45
2022-11-02T22:22:32.033Z,8.93
2022-11-02T22:25:34.217Z,9.00
2022-11-02T22:28:39.481Z,9.15
2022-11-02T22:31:42.140Z,8.73
2022-11-02T22:34:44.289Z,7.95
2022-11-02T22:38:05.068Z,8.05
2022-11-02T22:41:07.210Z,7.43
2022-11-02T22:44:17.800Z,7.85
2022-11-02T22:47:19.938Z,7.40
2022-11-02T22:50:23.810Z,8.63
2022-11-02T22:53:28.973Z,7.53
2022-11-02T22:56:31.466Z,8.27
2022-11-02T22:59:33.561Z,8.10
2022-11-02T23:02:36.000Z,8.23
2022-11-02T23:05:38.133Z,8.15
2022-11-02T23:08:42.945Z,8.73
2022-11-02T23:11:45.054Z,8.73
2022-11-02T23:14:47.182Z,7.55
2022-11-02T23:17:49.292Z,8.23
2022-11-02T23:20:51.842Z,7.53
2022-11-02T23:24:12.624Z,7.75
2022-11-02T23:27:14.790Z,7.50
2022-11-02T23:30:35.415Z,6.97
2022-11-02T23:33:37.618Z,6.93
2022-11-02T23:36:39.806Z,6.97
2022-11-02T23:39:48.508Z,6.80
2022-11-02T23:42:51.293Z,7.28
2022-11-02T23:45:54.179Z,7.00
2022-11-02T23:48:57.178Z,6.67
2022-11-02T23:52:18.699Z,5.80
2022-11-02T23:55:40.018Z,7.10
2022-11-02T23:58:43.316Z,8.52
